sensor_id;sensor_type;location;lat;lon;timestamp;P1;durP1;ratioP1;P2;durP2;ratioP2
31298;SDS011;17927;52.350;13.402;2023-09-08T00:01:16;7.28;;;5.97;;
31298;SDS011;17927;52.350;13.402;2023-09-08T00:03:41;7.30;;;5.80;;
31298;SDS011;17927;52.350;13.402;2023-09-08T00:06:07;6.22;;;5.63;;
31298;SDS011;17927;52.350;13.402;2023-09-08T00:08:32;8.65;;;5.50;;
31298;SDS011;17927;52.350;13.402;2023-09-08T00:10:57;6.57;;;5.93;;
31298;SDS011;17927;52.350;13.402;2023-09-08T00:13:22;8.27;;;5.82;;
31298;SDS011;17927;52.350;13.402;2023-09-08T00:15:48;11.07;;;5.93;;
31298;SDS011;17927;52.350;13.402;2023-09-08T00:18:13;6.47;;;5.88;;
31298;SDS011;17927;52.350;13.402;2023-09-08T00:20:38;6.13;;;5.65;;
31298;SDS011;17927;52.350;13.402;2023-09-08T00:23:03;7.70;;;6.20;;
31298;SDS011;17927;52.350;13.402;2023-09-08T00:25:29;7.72;;;5.90;;
31298;SDS011;17927;52.350;13.402;2023-09-08T00:27:54;6.75;;;6.15;;
31298;SDS011;17927;52.350;13.402;2023-09-08T00:30:19;6.35;;;5.75;;
31298;SDS011;17927;52.350;13.402;2023-09-08T00:32:44;6.97;;;6.28;;
31298;SDS011;17927;52.350;13.402;2023-09-08T00:35:10;8.95;;;6.35;;
31298;SDS011;17927;52.350;13.402;2023-09-08T00:37:36;6.90;;;6.28;;
31298;SDS011;17927;52.350;13.402;2023-09-08T00:40:02;7.90;;;6.13;;
31298;SDS011;17927;52.350;13.402;2023-09-08T00:42:27;8.10;;;6.63;;
31298;SDS011;17927;52.350;13.402;2023-09-08T00:44:52;7.88;;;6.72;;
31298;SDS011;17927;52.350;13.402;2023-09-08T00:47:18;7.80;;;5.93;;
31298;SDS011;17927;52.350;13.402;2023-09-08T00:49:43;7.00;;;6.40;;
31298;SDS011;17927;52.350;13.402;2023-09-08T00:52:08;6.82;;;6.22;;
31298;SDS011;17927;52.350;13.402;2023-09-08T00:54:33;6.65;;;6.05;;
31298;SDS011;17927;52.350;13.402;2023-09-08T00:56:59;7.38;;;5.82;;
31298;SDS011;17927;52.350;13.402;2023-09-08T00:59:27;7.07;;;6.47;;
31298;SDS011;17927;52.350;13.402;2023-09-08T01:01:52;7.55;;;6.85;;
31298;SDS011;17927;52.350;13.402;2023-09-08T01:04:18;8.23;;;6.18;;
31298;SDS011;17927;52.350;13.402;2023-09-08T01:06:44;7.78;;;6.90;;
31298;SDS011;17927;52.350;13.402;2023-09-08T01:09:10;7.70;;;6.90;;
31298;SDS011;17927;52.350;13.402;2023-09-08T01:11:36;7.20;;;5.93;;
31298;SDS011;17927;52.350;13.402;2023-09-08T01:14:02;8.00;;;7.20;;
31298;SDS011;17927;52.350;13.402;2023-09-08T01:16:27;8.40;;;6.97;;
31298;SDS011;17927;52.350;13.402;2023-09-08T01:18:52;6.93;;;6.22;;
31298;SDS011;17927;52.350;13.402;2023-09-08T01:21:35;9.32;;;6.38;;
31298;SDS011;17927;52.350;13.402;2023-09-08T01:24:26;8.27;;;6.78;;
31298;SDS011;17927;52.350;13.402;2023-09-08T01:27:06;6.68;;;6.07;;
31298;SDS011;17927;52.350;13.402;2023-09-08T01:29:34;7.72;;;6.63;;
31298;SDS011;17927;52.350;13.402;2023-09-08T01:32:03;7.55;;;6.68;;
31298;SDS011;17927;52.350;13.402;2023-09-08T01:34:29;7.93;;;7.13;;
31298;SDS011;17927;52.350;13.402;2023-09-08T01:36:55;10.10;;;7.25;;
31298;SDS011;17927;52.350;13.402;2023-09-08T01:39:21;7.82;;;7.03;;
31298;SDS011;17927;52.350;13.402;2023-09-08T01:41:47;6.90;;;6.30;;
31298;SDS011;17927;52.350;13.402;2023-09-08T01:44:12;7.65;;;6.85;;
31298;SDS011;17927;52.350;13.402;2023-09-08T01:46:37;7.38;;;6.68;;
31298;SDS011;17927;52.350;13.402;2023-09-08T01:49:03;7.65;;;6.95;;
31298;SDS011;17927;52.350;13.402;2023-09-08T01:51:28;9.77;;;7.10;;
31298;SDS011;17927;52.350;13.402;2023-09-08T01:53:54;7.97;;;6.72;;
31298;SDS011;17927;52.350;13.402;2023-09-08T01:56:19;8.00;;;6.80;;
31298;SDS011;17927;52.350;13.402;2023-09-08T01:58:44;8.18;;;6.93;;
31298;SDS011;17927;52.350;13.402;2023-09-08T02:01:09;7.60;;;6.90;;
31298;SDS011;17927;52.350;13.402;2023-09-08T02:03:35;8.15;;;6.80;;
31298;SDS011;17927;52.350;13.402;2023-09-08T02:06:00;7.72;;;7.00;;
31298;SDS011;17927;52.350;13.402;2023-09-08T02:08:25;8.05;;;7.35;;
31298;SDS011;17927;52.350;13.402;2023-09-08T02:10:50;8.85;;;7.25;;
31298;SDS011;17927;52.350;13.402;2023-09-08T02:13:16;7.38;;;6.72;;
31298;SDS011;17927;52.350;13.402;2023-09-08T02:15:41;21.65;;;19.10;;
31298;SDS011;17927;52.350;13.402;2023-09-08T02:18:07;16.63;;;13.77;;
31298;SDS011;17927;52.350;13.402;2023-09-08T02:20:32;14.40;;;11.27;;
31298;SDS011;17927;52.350;13.402;2023-09-08T02:23:03;12.35;;;11.07;;
31298;SDS011;17927;52.350;13.402;2023-09-08T02:25:29;15.75;;;13.75;;
31298;SDS011;17927;52.350;13.402;2023-09-08T02:27:54;17.48;;;14.50;;
31298;SDS011;17927;52.350;13.402;2023-09-08T02:30:19;9.45;;;8.55;;
31298;SDS011;17927;52.350;13.402;2023-09-08T02:32:45;21.60;;;16.83;;
31298;SDS011;17927;52.350;13.402;2023-09-08T02:35:10;12.95;;;10.35;;
31298;SDS011;17927;52.350;13.402;2023-09-08T02:37:35;10.20;;;8.73;;
31298;SDS011;17927;52.350;13.402;2023-09-08T02:40:01;9.30;;;8.40;;
31298;SDS011;17927;52.350;13.402;2023-09-08T02:42:27;10.77;;;9.57;;
31298;SDS011;17927;52.350;13.402;2023-09-08T02:44:52;20.05;;;12.95;;
31298;SDS011;17927;52.350;13.402;2023-09-08T02:47:17;17.52;;;12.88;;
31298;SDS011;17927;52.350;13.402;2023-09-08T02:49:42;12.93;;;10.90;;
31298;SDS011;17927;52.350;13.402;2023-09-08T02:52:08;9.80;;;8.52;;
31298;SDS011;17927;52.350;13.402;2023-09-08T02:54:33;10.68;;;9.57;;
31298;SDS011;17927;52.350;13.402;2023-09-08T02:56:59;12.75;;;9.95;;
31298;SDS011;17927;52.350;13.402;2023-09-08T02:59:24;12.38;;;10.57;;
31298;SDS011;17927;52.350;13.402;2023-09-08T03:01:49;12.90;;;9.95;;
31298;SDS011;17927;52.350;13.402;2023-09-08T03:04:14;12.07;;;9.98;;
31298;SDS011;17927;52.350;13.402;2023-09-08T03:06:40;11.75;;;10.00;;
31298;SDS011;17927;52.350;13.402;2023-09-08T03:09:05;10.48;;;9.40;;
31298;SDS011;17927;52.350;13.402;2023-09-08T03:11:30;12.15;;;10.50;;
31298;SDS011;17927;52.350;13.402;2023-09-08T03:13:55;11.55;;;9.95;;
31298;SDS011;17927;52.350;13.402;2023-09-08T03:16:21;14.40;;;9.73;;
31298;SDS011;17927;52.350;13.402;2023-09-08T03:18:46;12.48;;;9.68;;
31298;SDS011;17927;52.350;13.402;2023-09-08T03:21:13;10.32;;;9.00;;
31298;SDS011;17927;52.350;13.402;2023-09-08T03:23:39;11.65;;;9.57;;
31298;SDS011;17927;52.350;13.402;2023-09-08T03:26:06;11.98;;;8.90;;
31298;SDS011;17927;52.350;13.402;2023-09-08T03:28:32;9.93;;;9.02;;
31298;SDS011;17927;52.350;13.402;2023-09-08T03:30:58;11.50;;;10.20;;
31298;SDS011;17927;52.350;13.402;2023-09-08T03:33:23;11.73;;;10.27;;
31298;SDS011;17927;52.350;13.402;2023-09-08T03:35:48;12.25;;;9.65;;
31298;SDS011;17927;52.350;13.402;2023-09-08T03:38:14;12.02;;;10.77;;
31298;SDS011;17927;52.350;13.402;2023-09-08T03:40:39;13.57;;;10.57;;
31298;SDS011;17927;52.350;13.402;2023-09-08T03:43:05;9.70;;;8.75;;
31298;SDS011;17927;52.350;13.402;2023-09-08T03:45:30;12.15;;;9.48;;
31298;SDS011;17927;52.350;13.402;2023-09-08T03:47:55;12.63;;;10.38;;
31298;SDS011;17927;52.350;13.402;2023-09-08T03:50:20;11.55;;;9.00;;
31298;SDS011;17927;52.350;13.402;2023-09-08T03:52:46;12.00;;;9.88;;
31298;SDS011;17927;52.350;13.402;2023-09-08T03:55:11;15.20;;;9.40;;
31298;SDS011;17927;52.350;13.402;2023-09-08T03:57:36;11.65;;;9.70;;
31298;SDS011;17927;52.350;13.402;2023-09-08T04:00:02;9.80;;;8.80;;
31298;SDS011;17927;52.350;13.402;2023-09-08T04:02:29;13.35;;;10.27;;
31298;SDS011;17927;52.350;13.402;2023-09-08T04:04:54;13.73;;;10.48;;
31298;SDS011;17927;52.350;13.402;2023-09-08T04:07:20;10.82;;;9.27;;
31298;SDS011;17927;52.350;13.402;2023-09-08T04:09:45;10.50;;;9.48;;
31298;SDS011;17927;52.350;13.402;2023-09-08T04:12:10;9.30;;;8.35;;
31298;SDS011;17927;52.350;13.402;2023-09-08T04:14:36;8.60;;;7.80;;
31298;SDS011;17927;52.350;13.402;2023-09-08T04:17:01;9.10;;;7.85;;
31298;SDS011;17927;52.350;13.402;2023-09-08T04:19:27;10.48;;;8.30;;
31298;SDS011;17927;52.350;13.402;2023-09-08T04:21:52;11.60;;;8.35;;
31298;SDS011;17927;52.350;13.402;2023-09-08T04:24:18;9.02;;;8.07;;
31298;SDS011;17927;52.350;13.402;2023-09-08T04:26:43;10.40;;;8.75;;
31298;SDS011;17927;52.350;13.402;2023-09-08T04:29:08;12.02;;;8.77;;
31298;SDS011;17927;52.350;13.402;2023-09-08T04:31:33;10.68;;;7.97;;
31298;SDS011;17927;52.350;13.402;2023-09-08T04:33:58;12.10;;;8.38;;
31298;SDS011;17927;52.350;13.402;2023-09-08T04:36:24;10.13;;;8.93;;
31298;SDS011;17927;52.350;13.402;2023-09-08T04:38:49;12.38;;;8.52;;
31298;SDS011;17927;52.350;13.402;2023-09-08T04:41:14;10.55;;;8.52;;
31298;SDS011;17927;52.350;13.402;2023-09-08T04:43:39;11.63;;;8.32;;
31298;SDS011;17927;52.350;13.402;2023-09-08T04:46:05;13.15;;;8.60;;
31298;SDS011;17927;52.350;13.402;2023-09-08T04:48:30;10.27;;;8.75;;
31298;SDS011;17927;52.350;13.402;2023-09-08T04:50:56;9.23;;;8.32;;
31298;SDS011;17927;52.350;13.402;2023-09-08T04:53:21;10.50;;;9.50;;
31298;SDS011;17927;52.350;13.402;2023-09-08T04:55:47;9.07;;;8.15;;
31298;SDS011;17927;52.350;13.402;2023-09-08T04:58:12;13.10;;;9.15;;
31298;SDS011;17927;52.350;13.402;2023-09-08T05:00:37;13.80;;;9.15;;
31298;SDS011;17927;52.350;13.402;2023-09-08T05:03:03;10.52;;;9.25;;
31298;SDS011;17927;52.350;13.402;2023-09-08T05:05:29;10.10;;;8.88;;
31298;SDS011;17927;52.350;13.402;2023-09-08T05:07:54;9.57;;;8.68;;
31298;SDS011;17927;52.350;13.402;2023-09-08T05:10:21;9.52;;;8.60;;
31298;SDS011;17927;52.350;13.402;2023-09-08T05:12:47;13.35;;;8.13;;
31298;SDS011;17927;52.350;13.402;2023-09-08T05:15:12;10.93;;;9.45;;
31298;SDS011;17927;52.350;13.402;2023-09-08T05:17:40;11.73;;;9.23;;
31298;SDS011;17927;52.350;13.402;2023-09-08T05:20:06;11.02;;;8.77;;
31298;SDS011;17927;52.350;13.402;2023-09-08T05:22:31;11.60;;;10.00;;
31298;SDS011;17927;52.350;13.402;2023-09-08T05:24:57;11.45;;;9.10;;
31298;SDS011;17927;52.350;13.402;2023-09-08T05:27:22;14.93;;;9.80;;
31298;SDS011;17927;52.350;13.402;2023-09-08T05:29:47;12.07;;;9.43;;
31298;SDS011;17927;52.350;13.402;2023-09-08T05:32:12;9.02;;;8.18;;
31298;SDS011;17927;52.350;13.402;2023-09-08T05:34:38;11.02;;;9.35;;
31298;SDS011;17927;52.350;13.402;2023-09-08T05:37:03;13.02;;;8.70;;
31298;SDS011;17927;52.350;13.402;2023-09-08T05:39:29;12.30;;;9.18;;
31298;SDS011;17927;52.350;13.402;2023-09-08T05:41:54;13.73;;;9.05;;
31298;SDS011;17927;52.350;13.402;2023-09-08T05:44:19;12.48;;;8.70;;
31298;SDS011;17927;52.350;13.402;2023-09-08T05:46:45;9.60;;;8.73;;
31298;SDS011;17927;52.350;13.402;2023-09-08T05:49:10;10.55;;;8.65;;
31298;SDS011;17927;52.350;13.402;2023-09-08T05:51:35;9.32;;;8.38;;
31298;SDS011;17927;52.350;13.402;2023-09-08T05:54:01;12.50;;;9.57;;
31298;SDS011;17927;52.350;13.402;2023-09-08T05:56:29;17.35;;;8.98;;
31298;SDS011;17927;52.350;13.402;2023-09-08T05:58:55;14.27;;;8.43;;
31298;SDS011;17927;52.350;13.402;2023-09-08T06:01:20;11.95;;;8.30;;
31298;SDS011;17927;52.350;13.402;2023-09-08T06:03:46;9.57;;;8.18;;
31298;SDS011;17927;52.350;13.402;2023-09-08T06:06:11;10.18;;;8.50;;
31298;SDS011;17927;52.350;13.402;2023-09-08T06:08:36;8.60;;;7.80;;
31298;SDS011;17927;52.350;13.402;2023-09-08T06:11:02;9.52;;;8.18;;
31298;SDS011;17927;52.350;13.402;2023-09-08T06:13:27;10.75;;;9.05;;
31298;SDS011;17927;52.350;13.402;2023-09-08T06:15:52;9.57;;;8.30;;
31298;SDS011;17927;52.350;13.402;2023-09-08T06:18:17;12.23;;;8.73;;
31298;SDS011;17927;52.350;13.402;2023-09-08T06:20:43;10.13;;;8.38;;
31298;SDS011;17927;52.350;13.402;2023-09-08T06:23:09;13.55;;;8.15;;
31298;SDS011;17927;52.350;13.402;2023-09-08T06:25:35;11.40;;;7.75;;
31298;SDS011;17927;52.350;13.402;2023-09-08T06:28:00;8.85;;;7.65;;
31298;SDS011;17927;52.350;13.402;2023-09-08T06:30:25;8.95;;;7.20;;
31298;SDS011;17927;52.350;13.402;2023-09-08T06:32:51;8.88;;;7.97;;
31298;SDS011;17927;52.350;13.402;2023-09-08T06:35:16;8.68;;;7.82;;
31298;SDS011;17927;52.350;13.402;2023-09-08T06:37:41;10.90;;;7.55;;
31298;SDS011;17927;52.350;13.402;2023-09-08T06:40:07;10.38;;;6.53;;
31298;SDS011;17927;52.350;13.402;2023-09-08T06:42:32;8.68;;;7.40;;
31298;SDS011;17927;52.350;13.402;2023-09-08T06:44:58;8.77;;;7.88;;
31298;SDS011;17927;52.350;13.402;2023-09-08T06:47:24;8.63;;;7.75;;
31298;SDS011;17927;52.350;13.402;2023-09-08T06:49:49;8.30;;;7.45;;
31298;SDS011;17927;52.350;13.402;2023-09-08T06:52:16;8.10;;;7.30;;
31298;SDS011;17927;52.350;13.402;2023-09-08T06:54:42;10.43;;;7.28;;
31298;SDS011;17927;52.350;13.402;2023-09-08T06:57:07;7.53;;;6.85;;
31298;SDS011;17927;52.350;13.402;2023-09-08T06:59:32;7.65;;;6.95;;
31298;SDS011;17927;52.350;13.402;2023-09-08T07:01:57;8.50;;;7.63;;
31298;SDS011;17927;52.350;13.402;2023-09-08T07:04:23;13.60;;;7.20;;
31298;SDS011;17927;52.350;13.402;2023-09-08T07:06:48;8.32;;;7.25;;
31298;SDS011;17927;52.350;13.402;2023-09-08T07:09:15;11.30;;;7.13;;
31298;SDS011;17927;52.350;13.402;2023-09-08T07:11:40;8.45;;;6.88;;
31298;SDS011;17927;52.350;13.402;2023-09-08T07:14:05;9.77;;;7.82;;
31298;SDS011;17927;52.350;13.402;2023-09-08T07:16:30;7.80;;;7.10;;
31298;SDS011;17927;52.350;13.402;2023-09-08T07:18:56;10.65;;;6.95;;
31298;SDS011;17927;52.350;13.402;2023-09-08T07:21:21;7.72;;;7.00;;
31298;SDS011;17927;52.350;13.402;2023-09-08T07:23:46;7.32;;;6.63;;
31298;SDS011;17927;52.350;13.402;2023-09-08T07:26:12;7.40;;;6.72;;
31298;SDS011;17927;52.350;13.402;2023-09-08T07:28:37;8.32;;;6.65;;
31298;SDS011;17927;52.350;13.402;2023-09-08T07:31:03;11.95;;;6.63;;
31298;SDS011;17927;52.350;13.402;2023-09-08T07:33:29;7.50;;;6.13;;
31298;SDS011;17927;52.350;13.402;2023-09-08T07:35:54;6.78;;;6.15;;
31298;SDS011;17927;52.350;13.402;2023-09-08T07:38:19;6.70;;;5.40;;
31298;SDS011;17927;52.350;13.402;2023-09-08T07:40:45;8.07;;;7.30;;
31298;SDS011;17927;52.350;13.402;2023-09-08T07:43:10;6.78;;;6.05;;
31298;SDS011;17927;52.350;13.402;2023-09-08T07:45:35;7.68;;;5.80;;
31298;SDS011;17927;52.350;13.402;2023-09-08T07:48:00;8.02;;;6.22;;
31298;SDS011;17927;52.350;13.402;2023-09-08T07:50:26;10.30;;;6.40;;
31298;SDS011;17927;52.350;13.402;2023-09-08T07:52:53;7.32;;;5.85;;
31298;SDS011;17927;52.350;13.402;2023-09-08T07:55:20;8.75;;;6.18;;
31298;SDS011;17927;52.350;13.402;2023-09-08T07:57:48;6.07;;;5.40;;
31298;SDS011;17927;52.350;13.402;2023-09-08T08:00:14;7.70;;;5.82;;
31298;SDS011;17927;52.350;13.402;2023-09-08T08:02:42;6.35;;;5.75;;
31298;SDS011;17927;52.350;13.402;2023-09-08T08:05:10;6.03;;;5.43;;
31298;SDS011;17927;52.350;13.402;2023-09-08T08:07:35;6.78;;;6.07;;
31298;SDS011;17927;52.350;13.402;2023-09-08T08:10:01;6.07;;;5.47;;
31298;SDS011;17927;52.350;13.402;2023-09-08T08:12:26;10.52;;;5.47;;
31298;SDS011;17927;52.350;13.402;2023-09-08T08:14:52;5.90;;;5.40;;
31298;SDS011;17927;52.350;13.402;2023-09-08T08:17:17;6.03;;;5.43;;
31298;SDS011;17927;52.350;13.402;2023-09-08T08:19:44;12.05;;;5.68;;
31298;SDS011;17927;52.350;13.402;2023-09-08T08:22:09;8.07;;;5.30;;
31298;SDS011;17927;52.350;13.402;2023-09-08T08:24:34;7.70;;;5.45;;
31298;SDS011;17927;52.350;13.402;2023-09-08T08:27:00;8.18;;;5.25;;
31298;SDS011;17927;52.350;13.402;2023-09-08T08:29:26;9.13;;;5.65;;
31298;SDS011;17927;52.350;13.402;2023-09-08T08:31:52;11.95;;;5.82;;
31298;SDS011;17927;52.350;13.402;2023-09-08T08:34:17;7.68;;;5.20;;
31298;SDS011;17927;52.350;13.402;2023-09-08T08:36:42;7.30;;;4.45;;
31298;SDS011;17927;52.350;13.402;2023-09-08T08:39:07;5.15;;;4.75;;
31298;SDS011;17927;52.350;13.402;2023-09-08T08:41:33;7.03;;;4.90;;
31298;SDS011;17927;52.350;13.402;2023-09-08T08:44:02;5.53;;;5.00;;
31298;SDS011;17927;52.350;13.402;2023-09-08T08:46:28;6.88;;;4.65;;
31298;SDS011;17927;52.350;13.402;2023-09-08T08:48:54;9.57;;;5.15;;
31298;SDS011;17927;52.350;13.402;2023-09-08T08:51:21;5.22;;;4.70;;
31298;SDS011;17927;52.350;13.402;2023-09-08T08:53:48;7.53;;;5.18;;
31298;SDS011;17927;52.350;13.402;2023-09-08T08:56:13;5.18;;;4.50;;
31298;SDS011;17927;52.350;13.402;2023-09-08T08:58:39;5.43;;;4.38;;
31298;SDS011;17927;52.350;13.402;2023-09-08T09:01:04;5.82;;;4.50;;
31298;SDS011;17927;52.350;13.402;2023-09-08T09:03:31;7.82;;;5.15;;
31298;SDS011;17927;52.350;13.402;2023-09-08T09:05:57;8.07;;;4.97;;
31298;SDS011;17927;52.350;13.402;2023-09-08T09:08:24;6.35;;;4.15;;
31298;SDS011;17927;52.350;13.402;2023-09-08T09:10:50;5.18;;;4.63;;
31298;SDS011;17927;52.350;13.402;2023-09-08T09:13:16;5.78;;;4.78;;
31298;SDS011;17927;52.350;13.402;2023-09-08T09:15:42;5.50;;;4.43;;
31298;SDS011;17927;52.350;13.402;2023-09-08T09:18:07;7.13;;;4.75;;
31298;SDS011;17927;52.350;13.402;2023-09-08T09:20:33;6.97;;;4.75;;
31298;SDS011;17927;52.350;13.402;2023-09-08T09:22:59;5.22;;;4.72;;
31298;SDS011;17927;52.350;13.402;2023-09-08T09:25:25;5.35;;;4.85;;
31298;SDS011;17927;52.350;13.402;2023-09-08T09:27:53;12.73;;;5.53;;
31298;SDS011;17927;52.350;13.402;2023-09-08T09:30:25;4.38;;;3.97;;
31298;SDS011;17927;52.350;13.402;2023-09-08T09:33:02;6.50;;;5.15;;
31298;SDS011;17927;52.350;13.402;2023-09-08T09:35:40;7.38;;;5.05;;
31298;SDS011;17927;52.350;13.402;2023-09-08T09:38:10;12.73;;;5.80;;
31298;SDS011;17927;52.350;13.402;2023-09-08T09:40:36;5.95;;;4.18;;
31298;SDS011;17927;52.350;13.402;2023-09-08T09:43:02;5.43;;;4.55;;
31298;SDS011;17927;52.350;13.402;2023-09-08T09:45:29;7.68;;;5.40;;
31298;SDS011;17927;52.350;13.402;2023-09-08T09:47:55;4.75;;;4.35;;
31298;SDS011;17927;52.350;13.402;2023-09-08T09:50:28;9.00;;;4.30;;
31298;SDS011;17927;52.350;13.402;2023-09-08T09:52:57;6.80;;;4.88;;
31298;SDS011;17927;52.350;13.402;2023-09-08T09:55:24;8.65;;;4.82;;
31298;SDS011;17927;52.350;13.402;2023-09-08T09:57:50;4.50;;;4.10;;
31298;SDS011;17927;52.350;13.402;2023-09-08T10:00:20;4.43;;;3.88;;
31298;SDS011;17927;52.350;13.402;2023-09-08T10:02:46;6.00;;;4.03;;
31298;SDS011;17927;52.350;13.402;2023-09-08T10:05:12;4.78;;;3.88;;
31298;SDS011;17927;52.350;13.402;2023-09-08T10:07:38;4.53;;;4.22;;
31298;SDS011;17927;52.350;13.402;2023-09-08T10:10:05;4.68;;;4.20;;
31298;SDS011;17927;52.350;13.402;2023-09-08T10:12:30;4.22;;;3.85;;
31298;SDS011;17927;52.350;13.402;2023-09-08T10:15:00;4.38;;;4.07;;
31298;SDS011;17927;52.350;13.402;2023-09-08T10:17:28;8.63;;;4.43;;
31298;SDS011;17927;52.350;13.402;2023-09-08T10:19:56;6.63;;;3.97;;
31298;SDS011;17927;52.350;13.402;2023-09-08T10:22:26;6.03;;;4.25;;
31298;SDS011;17927;52.350;13.402;2023-09-08T10:27:23;4.35;;;3.95;;
31298;SDS011;17927;52.350;13.402;2023-09-08T10:29:49;7.05;;;3.90;;
31298;SDS011;17927;52.350;13.402;2023-09-08T10:32:14;5.07;;;4.15;;
31298;SDS011;17927;52.350;13.402;2023-09-08T10:34:41;4.47;;;4.07;;
31298;SDS011;17927;52.350;13.402;2023-09-08T10:39:45;6.68;;;4.03;;
31298;SDS011;17927;52.350;13.402;2023-09-08T10:47:14;4.78;;;3.85;;
31298;SDS011;17927;52.350;13.402;2023-09-08T10:49:43;4.05;;;3.75;;
31298;SDS011;17927;52.350;13.402;2023-09-08T10:52:09;6.60;;;4.00;;
31298;SDS011;17927;52.350;13.402;2023-09-08T10:54:48;6.85;;;4.03;;
31298;SDS011;17927;52.350;13.402;2023-09-08T10:57:15;4.25;;;3.85;;
31298;SDS011;17927;52.350;13.402;2023-09-08T11:00:24;4.07;;;3.72;;
31298;SDS011;17927;52.350;13.402;2023-09-08T11:02:48;3.88;;;3.58;;
31298;SDS011;17927;52.350;13.402;2023-09-08T11:05:15;4.65;;;3.40;;
31298;SDS011;17927;52.350;13.402;2023-09-08T11:07:41;4.10;;;3.80;;
31298;SDS011;17927;52.350;13.402;2023-09-08T11:10:08;5.28;;;4.22;;
31298;SDS011;17927;52.350;13.402;2023-09-08T11:12:35;6.70;;;3.65;;
31298;SDS011;17927;52.350;13.402;2023-09-08T11:15:04;6.43;;;3.78;;
31298;SDS011;17927;52.350;13.402;2023-09-08T11:17:32;4.45;;;3.65;;
31298;SDS011;17927;52.350;13.402;2023-09-08T11:19:59;3.90;;;3.55;;
31298;SDS011;17927;52.350;13.402;2023-09-08T11:22:25;5.95;;;4.38;;
31298;SDS011;17927;52.350;13.402;2023-09-08T11:24:51;3.53;;;3.22;;
31298;SDS011;17927;52.350;13.402;2023-09-08T11:27:18;4.55;;;4.25;;
31298;SDS011;17927;52.350;13.402;2023-09-08T11:29:44;3.95;;;3.67;;
31298;SDS011;17927;52.350;13.402;2023-09-08T11:32:10;4.30;;;3.90;;
31298;SDS011;17927;52.350;13.402;2023-09-08T11:34:36;4.20;;;3.90;;
31298;SDS011;17927;52.350;13.402;2023-09-08T11:37:08;4.82;;;4.43;;
31298;SDS011;17927;52.350;13.402;2023-09-08T11:39:38;6.18;;;4.63;;
31298;SDS011;17927;52.350;13.402;2023-09-08T11:42:04;4.85;;;4.25;;
31298;SDS011;17927;52.350;13.402;2023-09-08T11:44:31;4.60;;;4.20;;
31298;SDS011;17927;52.350;13.402;2023-09-08T11:46:56;4.55;;;4.10;;
31298;SDS011;17927;52.350;13.402;2023-09-08T11:49:22;8.13;;;3.85;;
31298;SDS011;17927;52.350;13.402;2023-09-08T11:51:48;4.15;;;3.75;;
31298;SDS011;17927;52.350;13.402;2023-09-08T11:54:14;3.95;;;3.55;;
31298;SDS011;17927;52.350;13.402;2023-09-08T11:56:40;4.20;;;3.90;;
31298;SDS011;17927;52.350;13.402;2023-09-08T11:59:05;4.00;;;3.75;;
31298;SDS011;17927;52.350;13.402;2023-09-08T12:01:31;4.57;;;4.18;;
31298;SDS011;17927;52.350;13.402;2023-09-08T12:03:56;4.82;;;3.78;;
31298;SDS011;17927;52.350;13.402;2023-09-08T12:06:24;4.65;;;4.25;;
31298;SDS011;17927;52.350;13.402;2023-09-08T12:08:50;3.65;;;3.35;;
31298;SDS011;17927;52.350;13.402;2023-09-08T12:11:16;4.13;;;3.42;;
31298;SDS011;17927;52.350;13.402;2023-09-08T12:13:41;4.55;;;3.42;;
31298;SDS011;17927;52.350;13.402;2023-09-08T12:16:19;4.20;;;3.90;;
31298;SDS011;17927;52.350;13.402;2023-09-08T12:18:47;7.22;;;4.13;;
31298;SDS011;17927;52.350;13.402;2023-09-08T12:21:13;4.07;;;3.78;;
31298;SDS011;17927;52.350;13.402;2023-09-08T12:23:48;4.53;;;4.20;;
31298;SDS011;17927;52.350;13.402;2023-09-08T12:26:15;4.32;;;3.92;;
31298;SDS011;17927;52.350;13.402;2023-09-08T12:28:41;5.85;;;4.00;;
31298;SDS011;17927;52.350;13.402;2023-09-08T12:31:07;3.75;;;3.45;;
31298;SDS011;17927;52.350;13.402;2023-09-08T12:33:33;4.18;;;3.58;;
31298;SDS011;17927;52.350;13.402;2023-09-08T12:35:59;3.92;;;3.70;;
31298;SDS011;17927;52.350;13.402;2023-09-08T12:38:30;3.83;;;3.53;;
31298;SDS011;17927;52.350;13.402;2023-09-08T12:40:55;3.67;;;3.38;;
31298;SDS011;17927;52.350;13.402;2023-09-08T12:43:21;3.88;;;3.50;;
31298;SDS011;17927;52.350;13.402;2023-09-08T12:45:46;6.03;;;3.43;;
31298;SDS011;17927;52.350;13.402;2023-09-08T12:48:11;3.88;;;3.20;;
31298;SDS011;17927;52.350;13.402;2023-09-08T12:50:37;3.73;;;3.43;;
31298;SDS011;17927;52.350;13.402;2023-09-08T12:53:02;3.80;;;3.57;;
31298;SDS011;17927;52.350;13.402;2023-09-08T12:55:27;4.68;;;3.58;;
31298;SDS011;17927;52.350;13.402;2023-09-08T12:57:53;4.00;;;3.30;;
31298;SDS011;17927;52.350;13.402;2023-09-08T13:00:22;3.40;;;3.20;;
31298;SDS011;17927;52.350;13.402;2023-09-08T13:02:48;4.70;;;3.80;;
31298;SDS011;17927;52.350;13.402;2023-09-08T13:05:13;5.35;;;3.78;;
31298;SDS011;17927;52.350;13.402;2023-09-08T13:07:38;4.00;;;3.70;;
31298;SDS011;17927;52.350;13.402;2023-09-08T13:10:04;4.20;;;3.77;;
31298;SDS011;17927;52.350;13.402;2023-09-08T13:12:30;4.50;;;3.63;;
31298;SDS011;17927;52.350;13.402;2023-09-08T13:14:56;5.40;;;3.25;;
31298;SDS011;17927;52.350;13.402;2023-09-08T13:17:21;4.57;;;4.20;;
31298;SDS011;17927;52.350;13.402;2023-09-08T13:19:47;3.83;;;3.45;;
31298;SDS011;17927;52.350;13.402;2023-09-08T13:22:12;3.65;;;3.25;;
31298;SDS011;17927;52.350;13.402;2023-09-08T13:24:37;4.63;;;3.35;;
31298;SDS011;17927;52.350;13.402;2023-09-08T13:27:03;3.97;;;3.67;;
31298;SDS011;17927;52.350;13.402;2023-09-08T13:29:29;3.28;;;3.08;;
31298;SDS011;17927;52.350;13.402;2023-09-08T13:31:54;3.80;;;3.20;;
31298;SDS011;17927;52.350;13.402;2023-09-08T13:34:20;3.97;;;3.65;;
31298;SDS011;17927;52.350;13.402;2023-09-08T13:36:46;4.20;;;3.28;;
31298;SDS011;17927;52.350;13.402;2023-09-08T13:39:11;3.42;;;3.13;;
31298;SDS011;17927;52.350;13.402;2023-09-08T13:41:44;3.35;;;3.15;;
31298;SDS011;17927;52.350;13.402;2023-09-08T13:44:10;4.00;;;3.38;;
31298;SDS011;17927;52.350;13.402;2023-09-08T13:46:35;5.00;;;3.53;;
31298;SDS011;17927;52.350;13.402;2023-09-08T13:49:01;3.47;;;3.17;;
31298;SDS011;17927;52.350;13.402;2023-09-08T13:51:26;3.50;;;3.30;;
31298;SDS011;17927;52.350;13.402;2023-09-08T13:53:51;4.20;;;3.80;;
31298;SDS011;17927;52.350;13.402;2023-09-08T13:56:16;3.40;;;3.20;;
31298;SDS011;17927;52.350;13.402;2023-09-08T13:58:42;6.73;;;3.30;;
31298;SDS011;17927;52.350;13.402;2023-09-08T14:01:10;3.58;;;3.28;;
31298;SDS011;17927;52.350;13.402;2023-09-08T14:03:35;3.67;;;3.20;;
31298;SDS011;17927;52.350;13.402;2023-09-08T14:06:00;6.57;;;3.43;;
31298;SDS011;17927;52.350;13.402;2023-09-08T14:08:25;4.80;;;3.40;;
31298;SDS011;17927;52.350;13.402;2023-09-08T14:10:52;3.80;;;3.50;;
31298;SDS011;17927;52.350;13.402;2023-09-08T14:13:18;4.03;;;3.42;;
31298;SDS011;17927;52.350;13.402;2023-09-08T14:15:43;4.40;;;4.00;;
31298;SDS011;17927;52.350;13.402;2023-09-08T14:18:08;6.87;;;4.17;;
31298;SDS011;17927;52.350;13.402;2023-09-08T14:20:35;4.47;;;4.10;;
31298;SDS011;17927;52.350;13.402;2023-09-08T14:23:00;3.60;;;3.40;;
31298;SDS011;17927;52.350;13.402;2023-09-08T14:25:25;5.00;;;4.25;;
31298;SDS011;17927;52.350;13.402;2023-09-08T14:27:50;4.30;;;3.97;;
31298;SDS011;17927;52.350;13.402;2023-09-08T14:30:16;4.90;;;3.37;;
31298;SDS011;17927;52.350;13.402;2023-09-08T14:32:41;4.22;;;3.83;;
31298;SDS011;17927;52.350;13.402;2023-09-08T14:35:06;5.22;;;3.80;;